Time;durP1;ratioP1;P1;durP2;ratioP2;P2;SDS_P1;SDS_P2;PMS_P1;PMS_P2;Temp;Humidity;BMP_temperature;BMP_pressure;BME280_temperature;BME280_humidity;BME280_pressure;Samples;Min_cycle;Max_cycle;Signal;HPM_P1;HPM_P2
2021/07/16 00:02:09;;;;;;;;;;;;;;;23.66;59.63;100410.75;5016993;28;1266;-41
2021/07/16 00:04:37;;;;;;;;;;;;;;;23.66;59.68;100422.38;5016945;28;1064;-41
2021/07/16 00:07:03;;;;;;;;;;;;;;;23.65;59.50;100426.09;5016347;28;1442;-41
2021/07/16 00:09:30;;;;;;;;;;;;;;;23.66;59.42;100433.19;5016883;28;1588;-41
2021/07/16 00:11:56;;;;;;;;;;;;;;;23.72;58.95;100427.06;5017044;28;1906;-41
2021/07/16 00:14:23;;;;;;;;;;;;;;;23.75;59.08;100413.22;5017075;28;1008;-41
2021/07/16 00:16:50;;;;;;;;;;;;;;;23.70;59.39;100407.50;5016546;28;1557;-41
2021/07/16 00:19:16;;;;;;;;;;;;;;;23.59;59.12;100405.19;5016854;28;1561;-41
2021/07/16 00:21:44;;;;;;;;;;;;;;;23.50;59.26;100408.94;5016471;28;1624;-41
2021/07/16 00:24:11;;;;;;;;;;;;;;;23.47;59.50;100399.31;5016622;28;1108;-41
2021/07/16 00:26:37;;;;;;;;;;;;;;;23.42;59.55;100409.81;5016818;28;1605;-42
2021/07/16 00:29:04;;;;;;;;;;;;;;;23.38;59.44;100406.63;5016488;28;2174;-41
2021/07/16 00:31:31;;;;;;;;;;;;;;;23.45;59.74;100395.13;5017005;28;2072;-41
2021/07/16 00:33:57;;;;;;;;;;;;;;;23.45;59.50;100403.22;5016712;28;1903;-41
2021/07/16 00:36:24;;;;;;;;;;;;;;;23.40;59.17;100401.06;5016444;28;1557;-41
2021/07/16 00:38:52;;;;;;;;;;;;;;;23.50;59.16;100406.25;5016650;28;1083;-41
2021/07/16 00:41:18;;;;;;;;;;;;;;;23.56;59.17;100405.56;5016309;28;1092;-41
2021/07/16 00:43:45;;;;;;;;;;;;;;;23.48;59.10;100386.69;5016437;28;1007;-41
2021/07/16 00:46:11;;;;;;;;;;;;;;;23.36;59.36;100389.75;5016470;28;1577;-41
2021/07/16 00:48:37;;;;;;;;;;;;;;;23.34;59.67;100399.88;5016484;28;1044;-41
2021/07/16 00:51:04;;;;;;;;;;;;;;;23.39;59.26;100407.44;5016218;28;1631;-42
2021/07/16 00:53:31;;;;;;;;;;;;;;;23.44;59.19;100388.91;5016307;28;1977;-41
2021/07/16 00:55:59;;;;;;;;;;;;;;;23.39;59.28;100397.50;5016084;28;1108;-41
2021/07/16 00:58:25;;;;;;;;;;;;;;;23.35;59.10;100398.03;5016216;28;1099;-41
2021/07/16 01:00:52;;;;;;;;;;;;;;;23.46;59.03;100399.50;5015627;28;1577;-41
2021/07/16 01:03:18;;;;;;;;;;;;;;;23.52;59.01;100394.25;5015307;28;1548;-41
2021/07/16 01:05:45;;;;;;;;;;;;;;;23.46;58.99;100410.28;5015921;28;1541;-41
2021/07/16 01:08:11;;;;;;;;;;;;;;;23.27;59.40;100390.78;5015698;28;1126;-41
2021/07/16 01:10:39;;;;;;;;;;;;;;;23.31;59.29;100402.91;5016067;28;1082;-41
2021/07/16 01:13:13;;;;;;;;;;;;;;;23.26;59.26;100396.34;5015630;28;1906;-41
2021/07/16 01:15:40;;;;;;;;;;;;;;;23.33;58.94;100403.59;5015643;28;1581;-41
2021/07/16 01:18:07;;;;;;;;;;;;;;;23.42;58.77;100388.22;5015940;28;1101;-41
2021/07/16 01:20:33;;;;;;;;;;;;;;;23.42;59.13;100399.03;5015789;28;1032;-41
2021/07/16 01:23:01;;;;;;;;;;;;;;;23.31;59.22;100396.69;5015859;28;1008;-41
2021/07/16 01:25:30;;;;;;;;;;;;;;;23.26;59.16;100405.31;5015385;28;1537;-41
2021/07/16 01:27:57;;;;;;;;;;;;;;;23.30;58.96;100395.84;5015961;28;1081;-41
2021/07/16 01:30:25;;;;;;;;;;;;;;;23.38;58.94;100414.72;5015605;28;1608;-41
2021/07/16 01:32:51;;;;;;;;;;;;;;;23.45;58.80;100411.31;5015721;28;1906;-41
2021/07/16 01:35:19;;;;;;;;;;;;;;;23.35;59.17;100404.25;5015503;28;1601;-41
2021/07/16 01:37:46;;;;;;;;;;;;;;;23.44;58.78;100418.56;5015517;28;1127;-41
2021/07/16 01:40:14;;;;;;;;;;;;;;;23.40;58.90;100401.88;5014994;28;1538;-41
2021/07/16 01:42:43;;;;;;;;;;;;;;;23.50;58.53;100414.34;5015130;28;963;-41
2021/07/16 01:45:10;;;;;;;;;;;;;;;23.49;58.57;100396.47;5015016;28;1072;-41
2021/07/16 01:47:37;;;;;;;;;;;;;;;23.43;58.82;100393.44;5014683;28;1506;-41
2021/07/16 01:50:04;;;;;;;;;;;;;;;23.42;58.77;100382.84;5014790;28;1537;-41
2021/07/16 01:52:30;;;;;;;;;;;;;;;23.26;59.43;100393.66;5014674;28;1977;-41
2021/07/16 01:54:56;;;;;;;;;;;;;;;23.12;59.51;100398.75;5014033;28;1494;-41
2021/07/16 01:57:23;;;;;;;;;;;;;;;23.21;59.18;100386.09;5015005;28;1959;-41
2021/07/16 01:59:51;;;;;;;;;;;;;;;23.30;58.92;100387.75;5014333;28;1390;-41
2021/07/16 02:02:31;;;;;;;;;;;;;;;23.38;58.57;100385.03;5127372;22;3518;-41
2021/07/16 02:04:57;;;;;;;;;;;;;;;23.26;59.17;100391.81;5034378;28;1099;-41
2021/07/16 02:07:24;;;;;;;;;;;;;;;23.17;59.34;100390.16;5034458;28;1154;-41
2021/07/16 02:09:50;;;;;;;;;;;;;;;23.15;59.09;100384.91;5034363;28;1079;-41
2021/07/16 02:12:17;;;;;;;;;;;;;;;23.26;58.93;100383.72;5034730;28;1902;-41
2021/07/16 02:14:43;;;;;;;;;;;;;;;23.26;59.06;100381.03;5029242;28;1513;-41
2021/07/16 02:17:11;;;;;;;;;;;;;;;23.32;58.93;100393.81;5014368;28;1089;-41
2021/07/16 02:19:37;;;;;;;;;;;;;;;23.34;59.28;100386.41;5014438;28;1122;-41
2021/07/16 02:22:05;;;;;;;;;;;;;;;23.35;58.89;100398.03;5014814;28;999;-41
2021/07/16 02:24:32;;;;;;;;;;;;;;;23.36;58.90;100395.16;5014742;28;999;-41
2021/07/16 02:26:58;;;;;;;;;;;;;;;23.36;58.72;100389.75;5014860;28;1073;-41
2021/07/16 02:29:24;;;;;;;;;;;;;;;23.33;58.67;100395.47;5019039;28;1684;-41
2021/07/16 02:31:51;;;;;;;;;;;;;;;23.20;59.01;100389.81;5033993;28;1567;-42
2021/07/16 02:34:19;;;;;;;;;;;;;;;23.05;59.57;100391.53;5015270;28;1977;-41
2021/07/16 02:36:45;;;;;;;;;;;;;;;23.10;59.31;100389.13;5014393;28;1154;-41
2021/07/16 02:39:12;;;;;;;;;;;;;;;23.07;59.55;100401.13;5015805;28;1614;-41
2021/07/16 02:41:38;;;;;;;;;;;;;;;23.06;58.86;100403.97;5033869;28;1075;-41
2021/07/16 02:44:05;;;;;;;;;;;;;;;23.15;58.95;100402.97;5033799;28;1505;-41
2021/07/16 02:46:31;;;;;;;;;;;;;;;23.16;58.85;100410.06;5034075;28;1082;-41
2021/07/16 02:48:58;;;;;;;;;;;;;;;23.17;59.10;100414.41;5033875;28;1604;-41
2021/07/16 02:51:26;;;;;;;;;;;;;;;23.21;58.98;100418.44;5033658;28;1585;-41
2021/07/16 02:53:53;;;;;;;;;;;;;;;23.20;58.94;100428.41;5034014;28;1983;-41
2021/07/16 02:56:20;;;;;;;;;;;;;;;23.22;58.95;100421.00;5033936;28;1074;-41
2021/07/16 02:58:46;;;;;;;;;;;;;;;23.26;59.00;100421.50;5033388;28;1524;-41
2021/07/16 03:01:13;;;;;;;;;;;;;;;23.33;58.70;100435.13;5033610;28;1388;-42
2021/07/16 03:03:39;;;;;;;;;;;;;;;23.35;58.75;100441.19;5032748;28;1150;-41
2021/07/16 03:06:06;;;;;;;;;;;;;;;23.26;58.82;100434.13;5033417;28;1115;-41
2021/07/16 03:08:34;;;;;;;;;;;;;;;23.27;58.75;100441.22;5024189;28;1528;-41
2021/07/16 03:11:00;;;;;;;;;;;;;;;23.30;58.54;100439.03;5015176;28;1536;-41
2021/07/16 03:13:27;;;;;;;;;;;;;;;23.35;58.47;100436.63;5014217;28;1973;-41
2021/07/16 03:15:53;;;;;;;;;;;;;;;23.34;58.60;100439.53;5013672;28;1076;-41
2021/07/16 03:18:20;;;;;;;;;;;;;;;23.33;58.43;100441.34;5013566;28;1064;-41
2021/07/16 03:20:47;;;;;;;;;;;;;;;23.33;58.70;100433.25;5013636;28;1134;-41
2021/07/16 03:23:15;;;;;;;;;;;;;;;23.37;58.74;100440.00;5016218;28;1700;-42
2021/07/16 03:25:43;;;;;;;;;;;;;;;23.34;59.20;100434.97;5013860;28;1003;-41
2021/07/16 03:28:11;;;;;;;;;;;;;;;23.20;59.49;100438.38;5016949;28;1178;-41
2021/07/16 03:30:38;;;;;;;;;;;;;;;22.97;59.80;100422.84;5017842;28;1077;-41
2021/07/16 03:33:05;;;;;;;;;;;;;;;22.92;60.09;100437.84;5017102;28;1906;-40
2021/07/16 03:35:32;;;;;;;;;;;;;;;22.99;59.88;100433.47;5017828;28;1063;-41
2021/07/16 03:37:58;;;;;;;;;;;;;;;23.13;59.51;100443.59;5017470;28;1076;-41
2021/07/16 03:40:27;;;;;;;;;;;;;;;23.23;59.29;100435.31;5017999;28;1108;-41
2021/07/16 03:42:55;;;;;;;;;;;;;;;23.25;59.07;100430.59;5017889;28;1010;-41
2021/07/16 03:45:22;;;;;;;;;;;;;;;23.29;59.44;100431.91;5017388;28;1095;-41
2021/07/16 03:47:49;;;;;;;;;;;;;;;23.20;59.67;100433.81;5017941;28;1927;-41
2021/07/16 03:50:16;;;;;;;;;;;;;;;23.22;60.04;100430.94;5017547;28;995;-40
2021/07/16 03:52:43;;;;;;;;;;;;;;;23.24;59.47;100437.00;5017170;28;1099;-41
2021/07/16 03:55:11;;;;;;;;;;;;;;;23.14;59.64;100447.13;5017210;28;1094;-41
2021/07/16 03:57:37;;;;;;;;;;;;;;;23.11;59.69;100444.78;5017416;28;1082;-41
2021/07/16 04:00:06;;;;;;;;;;;;;;;23.27;59.63;100460.09;5017104;28;1143;-41
2021/07/16 04:02:33;;;;;;;;;;;;;;;23.15;59.59;100448.81;5015835;28;1496;-41
2021/07/16 04:04:59;;;;;;;;;;;;;;;23.19;59.38;100459.09;5016982;28;1099;-41
2021/07/16 04:07:28;;;;;;;;;;;;;;;23.31;59.20;100446.09;5016953;28;1356;-41
2021/07/16 04:09:55;;;;;;;;;;;;;;;23.32;58.83;100453.19;5017255;28;1059;-41
2021/07/16 04:12:22;;;;;;;;;;;;;;;23.34;58.65;100442.22;5017201;28;1004;-41
2021/07/16 04:14:49;;;;;;;;;;;;;;;23.38;58.90;100454.34;5019249;28;1979;-41
2021/07/16 04:17:18;;;;;;;;;;;;;;;23.48;58.58;100459.56;5040820;28;1345;-41
2021/07/16 04:19:45;;;;;;;;;;;;;;;23.31;58.72;100467.66;5036449;28;1166;-40
2021/07/16 04:22:12;;;;;;;;;;;;;;;23.49;58.48;100470.16;5037052;28;990;-41
2021/07/16 04:24:39;;;;;;;;;;;;;;;23.52;58.17;100475.22;5036450;28;1167;-41
2021/07/16 04:27:07;;;;;;;;;;;;;;;23.65;58.13;100463.03;5036688;28;1091;-41
2021/07/16 04:29:33;;;;;;;;;;;;;;;23.77;57.91;100462.50;5036724;28;1044;-41
2021/07/16 04:32:01;;;;;;;;;;;;;;;23.89;57.71;100465.66;5038465;28;1369;-41
2021/07/16 04:34:29;;;;;;;;;;;;;;;24.07;56.88;100457.31;5041644;28;1973;-41
2021/07/16 04:36:55;;;;;;;;;;;;;;;24.25;56.63;100467.84;5053940;28;1100;-41
2021/07/16 04:39:22;;;;;;;;;;;;;;;24.33;56.94;100461.56;5053196;28;1035;-41
2021/07/16 04:41:48;;;;;;;;;;;;;;;24.40;57.10;100462.56;5054623;28;1107;-41
2021/07/16 04:44:15;;;;;;;;;;;;;;;24.47;57.16;100468.94;5054169;28;1092;-40
2021/07/16 04:46:41;;;;;;;;;;;;;;;24.47;56.73;100460.81;5055971;28;1080;-41
2021/07/16 04:49:08;;;;;;;;;;;;;;;24.52;56.64;100461.16;5055878;28;1007;-41
2021/07/16 04:51:36;;;;;;;;;;;;;;;24.57;56.71;100457.91;5056154;28;1082;-41
2021/07/16 04:54:03;;;;;;;;;;;;;;;24.56;56.78;100450.81;5055965;28;1913;-41
2021/07/16 04:56:30;;;;;;;;;;;;;;;24.51;56.83;100442.41;5056051;28;1064;-41
2021/07/16 04:58:57;;;;;;;;;;;;;;;24.56;56.96;100443.53;5055717;28;1154;-41
2021/07/16 05:01:24;;;;;;;;;;;;;;;24.58;57.16;100454.19;5055549;28;1391;-41
2021/07/16 05:03:51;;;;;;;;;;;;;;;24.50;57.45;100441.56;5054450;28;1109;-41
2021/07/16 05:06:17;;;;;;;;;;;;;;;24.48;57.45;100440.88;5055449;28;1091;-41
2021/07/16 05:08:45;;;;;;;;;;;;;;;24.49;57.53;100439.00;5055519;28;1002;-41
2021/07/16 05:11:12;;;;;;;;;;;;;;;24.52;57.78;100434.13;5055765;28;1061;-41
2021/07/16 05:13:39;;;;;;;;;;;;;;;24.59;57.55;100445.91;5055351;28;1975;-41
2021/07/16 05:16:05;;;;;;;;;;;;;;;24.67;57.62;100436.88;5055710;28;995;-41
2021/07/16 05:18:32;;;;;;;;;;;;;;;24.69;57.96;100433.97;5055569;28;1074;-41
2021/07/16 05:20:59;;;;;;;;;;;;;;;24.66;57.67;100429.78;5055289;28;1142;-41
2021/07/16 05:23:25;;;;;;;;;;;;;;;24.68;58.16;100424.19;5055532;28;1058;-41
2021/07/16 05:25:54;;;;;;;;;;;;;;;24.72;58.45;100431.75;5055201;28;1165;-41
2021/07/16 05:28:20;;;;;;;;;;;;;;;24.77;57.80;100431.22;5055485;28;990;-41
2021/07/16 05:30:47;;;;;;;;;;;;;;;24.84;57.95;100431.34;5055071;28;1131;-41
2021/07/16 05:33:14;;;;;;;;;;;;;;;24.87;58.35;100434.53;5055388;28;1077;-41
2021/07/16 05:35:40;;;;;;;;;;;;;;;24.86;58.50;100419.31;5055231;28;2071;-41
2021/07/16 05:38:08;;;;;;;;;;;;;;;24.89;58.53;100437.88;5055230;28;1123;-41
2021/07/16 05:40:34;;;;;;;;;;;;;;;24.87;57.89;100437.22;5051843;28;1438;-41
2021/07/16 05:43:06;;;;;;;;;;;;;;;24.86;58.04;100435.53;5032285;28;1668;-41
2021/07/16 05:45:33;;;;;;;;;;;;;;;24.86;58.67;100424.72;5016385;28;1952;-41
2021/07/16 05:48:01;;;;;;;;;;;;;;;24.90;58.22;100420.63;5016089;28;1557;-41
2021/07/16 05:50:28;;;;;;;;;;;;;;;24.86;58.15;100430.13;5029365;28;1544;-42
2021/07/16 05:52:54;;;;;;;;;;;;;;;24.85;58.13;100427.59;5031459;28;1875;-41
2021/07/16 05:55:21;;;;;;;;;;;;;;;23.98;58.50;100426.81;5025463;28;1973;-41
2021/07/16 05:57:48;;;;;;;;;;;;;;;23.11;58.20;100423.19;5029236;28;1528;-41
2021/07/16 06:00:17;;;;;;;;;;;;;;;22.60;58.30;100432.28;5031494;28;1528;-41
2021/07/16 06:02:44;;;;;;;;;;;;;;;22.20;58.89;100452.75;5026362;28;1637;-40
2021/07/16 06:05:11;;;;;;;;;;;;;;;22.49;59.01;100446.09;5028382;28;1564;-41
2021/07/16 06:07:37;;;;;;;;;;;;;;;22.83;59.69;100451.31;5034360;28;1215;-40
2021/07/16 06:10:04;;;;;;;;;;;;;;;23.11;60.44;100440.22;5034525;28;1326;-41
2021/07/16 06:12:37;;;;;;;;;;;;;;;23.34;60.55;100444.91;5034207;28;1390;-41
2021/07/16 06:15:04;;;;;;;;;;;;;;;23.39;60.73;100429.88;5034672;28;1979;-41
2021/07/16 06:17:33;;;;;;;;;;;;;;;23.49;61.17;100423.44;5034486;28;1243;-41
2021/07/16 06:19:59;;;;;;;;;;;;;;;23.54;61.43;100442.66;5033335;28;1383;-41
2021/07/16 06:22:26;;;;;;;;;;;;;;;23.55;61.50;100430.84;5017893;28;1479;-41
2021/07/16 06:24:53;;;;;;;;;;;;;;;23.53;62.00;100422.91;5028610;28;1756;-42
2021/07/16 06:27:19;;;;;;;;;;;;;;;23.55;62.20;100420.88;5020891;28;1724;-41
2021/07/16 06:29:46;;;;;;;;;;;;;;;23.63;62.69;100433.50;5021482;28;1415;-41
2021/07/16 06:32:12;;;;;;;;;;;;;;;23.66;62.82;100430.47;5014515;28;1432;-41
2021/07/16 06:34:40;;;;;;;;;;;;;;;23.63;63.20;100425.41;5018457;28;1975;-41
2021/07/16 06:37:07;;;;;;;;;;;;;;;23.62;63.30;100419.19;5021607;28;1417;-41
2021/07/16 06:39:34;;;;;;;;;;;;;;;23.72;63.35;100413.56;5015855;28;1704;-41
2021/07/16 06:42:00;;;;;;;;;;;;;;;23.59;61.78;100410.59;5028612;28;1740;-41
2021/07/16 06:44:27;;;;;;;;;;;;;;;23.51;61.70;100416.00;5017606;28;1544;-42
2021/07/16 06:46:53;;;;;;;;;;;;;;;23.50;63.14;100420.59;5021686;28;1516;-41
2021/07/16 06:49:26;;;;;;;;;;;;;;;23.58;63.28;100433.22;5017270;28;1486;-41
2021/07/16 06:51:54;;;;;;;;;;;;;;;23.59;63.67;100427.63;5016317;28;1528;-41
2021/07/16 06:54:20;;;;;;;;;;;;;;;23.65;63.93;100434.19;5022716;28;1981;-41
2021/07/16 06:56:47;;;;;;;;;;;;;;;23.57;64.24;100424.25;5026269;28;1563;-41
2021/07/16 06:59:13;;;;;;;;;;;;;;;23.61;64.40;100436.38;5032738;28;1752;-40
2021/07/16 07:01:40;;;;;;;;;;;;;;;23.57;64.68;100423.41;5014287;28;1836;-41
2021/07/16 07:04:06;;;;;;;;;;;;;;;23.72;64.86;100432.47;5014474;28;1611;-41
2021/07/16 07:06:33;;;;;;;;;;;;;;;23.56;64.46;100427.16;5014130;28;1540;-40
2021/07/16 07:09:00;;;;;;;;;;;;;;;23.26;64.48;100426.88;5014512;28;1475;-41
2021/07/16 07:11:27;;;;;;;;;;;;;;;23.00;64.02;100411.72;5021853;28;1814;-40
2021/07/16 07:13:53;;;;;;;;;;;;;;;22.84;63.99;100427.94;5025111;28;1910;-41
2021/07/16 07:16:20;;;;;;;;;;;;;;;22.75;63.99;100416.28;5023230;28;2062;-40
2021/07/16 07:18:46;;;;;;;;;;;;;;;22.70;64.08;100426.75;5028331;28;1418;-40
2021/07/16 07:21:14;;;;;;;;;;;;;;;22.62;63.96;100422.19;5019634;28;1404;-40
2021/07/16 07:23:40;;;;;;;;;;;;;;;22.59;63.64;100409.03;5022901;28;1469;-41
2021/07/16 07:26:08;;;;;;;;;;;;;;;22.56;63.81;100397.75;5033275;28;1752;-41
2021/07/16 07:28:34;;;;;;;;;;;;;;;22.55;63.75;100417.63;5031890;28;1814;-41
2021/07/16 07:31:01;;;;;;;;;;;;;;;22.49;63.69;100413.75;5028352;28;1531;-41
2021/07/16 07:33:28;;;;;;;;;;;;;;;22.46;63.72;100411.38;5027760;28;1932;-41
2021/07/16 07:35:55;;;;;;;;;;;;;;;22.50;63.56;100418.16;5022225;28;1909;-40
2021/07/16 07:38:21;;;;;;;;;;;;;;;22.44;63.38;100413.41;5017805;28;1636;-41
2021/07/16 07:40:48;;;;;;;;;;;;;;;22.44;63.39;100416.09;5026600;28;1618;-41
2021/07/16 07:43:16;;;;;;;;;;;;;;;22.40;63.35;100412.03;5019809;28;1365;-41
2021/07/16 07:45:42;;;;;;;;;;;;;;;22.48;63.24;100408.53;5020296;28;1536;-40
2021/07/16 07:48:09;;;;;;;;;;;;;;;22.42;63.21;100401.94;5017044;28;1549;-40
2021/07/16 07:50:35;;;;;;;;;;;;;;;22.44;63.10;100405.31;5025748;28;1740;-41
2021/07/16 07:53:02;;;;;;;;;;;;;;;22.36;63.42;100408.88;5028719;28;1549;-41
2021/07/16 07:55:29;;;;;;;;;;;;;;;22.38;63.41;100411.38;5031853;28;1902;-41
2021/07/16 07:57:56;;;;;;;;;;;;;;;22.42;63.52;100408.19;5032083;28;1368;-40
2021/07/16 08:00:25;;;;;;;;;;;;;;;22.36;63.38;100402.63;5031795;28;1611;-41
2021/07/16 08:02:52;;;;;;;;;;;;;;;22.43;63.24;100409.03;5026650;28;1434;-41
2021/07/16 08:05:19;;;;;;;;;;;;;;;22.40;62.83;100404.81;5031559;28;1412;-41
2021/07/16 08:07:45;;;;;;;;;;;;;;;22.37;63.09;100409.69;5027986;28;1305;-41
2021/07/16 08:10:12;;;;;;;;;;;;;;;;;;5030648;28;1284;-41
2021/07/16 08:12:39;;;;;;;;;;;;;;;22.40;62.88;100401.25;5030188;28;1516;-41
2021/07/16 08:15:06;;;;;;;;;;;;;;;22.35;62.59;100387.47;5032508;28;1979;-41
2021/07/16 08:17:34;;;;;;;;;;;;;;;22.32;62.94;100390.50;5035423;28;1364;-41
2021/07/16 08:20:01;;;;;;;;;;;;;;;22.29;63.18;100398.91;5035304;28;1277;-40
2021/07/16 08:22:27;;;;;;;;;;;;;;;22.38;63.87;100400.59;5034351;28;1532;-41
2021/07/16 08:24:54;;;;;;;;;;;;;;;22.38;63.57;100397.91;5034777;28;1375;-40
2021/07/16 08:27:20;;;;;;;;;;;;;;;22.47;63.34;100396.06;5032947;28;1285;-41
2021/07/16 08:29:47;;;;;;;;;;;;;;;22.50;63.32;100404.66;5033680;28;1352;-40
2021/07/16 08:32:13;;;;;;;;;;;;;;;22.47;63.65;100388.00;5017912;28;1595;-41
2021/07/16 08:34:41;;;;;;;;;;;;;;;22.48;64.26;100395.88;5021531;28;1968;-40
2021/07/16 08:37:07;;;;;;;;;;;;;;;22.50;64.17;100393.91;5020704;28;1641;-40
2021/07/16 08:39:34;;;;;;;;;;;;;;;22.51;64.46;100378.56;5028864;28;1774;-41
2021/07/16 08:42:02;;;;;;;;;;;;;;;22.50;65.25;100366.09;5024730;28;1712;-41
2021/07/16 08:44:30;;;;;;;;;;;;;;;22.56;65.92;100381.56;5026921;28;1760;-40
2021/07/16 08:46:57;;;;;;;;;;;;;;;22.60;65.74;100373.00;5028337;28;1681;-40
2021/07/16 08:49:24;;;;;;;;;;;;;;;22.59;65.12;100360.53;5027032;28;1732;-40
2021/07/16 08:51:59;;;;;;;;;;;;;;;22.59;65.40;100368.63;5033977;28;1522;-41
2021/07/16 08:54:25;;;;;;;;;;;;;;;22.51;65.23;100367.78;5022327;28;1917;-41
2021/07/16 08:56:52;;;;;;;;;;;;;;;22.51;65.13;100352.44;5025527;28;1954;-41
2021/07/16 08:59:18;;;;;;;;;;;;;;;22.61;64.52;100365.75;5016174;28;1688;-41
2021/07/16 09:01:46;;;;;;;;;;;;;;;22.52;64.90;100347.91;5023490;28;1428;-41
2021/07/16 09:04:12;;;;;;;;;;;;;;;22.59;64.84;100348.91;5014788;28;1766;-40
2021/07/16 09:06:49;;;;;;;;;;;;;;;22.57;65.12;100353.63;5017976;28;1776;-41
2021/07/16 09:09:18;;;;;;;;;;;;;;;22.57;65.14;100335.59;5019797;28;1461;-41
2021/07/16 09:11:45;;;;;;;;;;;;;;;22.59;65.58;100349.75;5031860;28;1535;-41
2021/07/16 09:14:20;;;;;;;;;;;;;;;22.60;66.28;100343.38;5026990;28;1732;-41
2021/07/16 09:16:56;;;;;;;;;;;;;;;22.53;65.72;100350.44;5024438;28;1968;-41
2021/07/16 09:19:26;;;;;;;;;;;;;;;22.50;65.90;100358.88;5019822;28;1539;-40
2021/07/16 09:21:58;;;;;;;;;;;;;;;22.45;66.05;100363.91;5030650;28;1756;-42
2021/07/16 09:24:26;;;;;;;;;;;;;;;22.46;65.15;100348.56;5027696;28;1693;-41
2021/07/16 09:26:53;;;;;;;;;;;;;;;22.50;65.18;100377.72;5019626;28;1704;-40
2021/07/16 09:29:27;;;;;;;;;;;;;;;22.43;65.12;100345.19;5019190;28;1724;-41
2021/07/16 09:31:53;;;;;;;;;;;;;;;;;;5026615;28;1881;-41
2021/07/16 09:34:21;;;;;;;;;;;;;;;22.32;65.17;100355.47;5026073;28;2274;-41
2021/07/16 09:36:47;;;;;;;;;;;;;;;22.30;65.21;100352.09;5016274;28;1898;-40
2021/07/16 09:39:16;;;;;;;;;;;;;;;22.22;64.69;100347.50;5018856;28;1779;-40
2021/07/16 09:41:50;;;;;;;;;;;;;;;22.24;64.83;100359.84;5021026;28;1373;-41
2021/07/16 09:44:26;;;;;;;;;;;;;;;22.27;64.60;100358.69;5024722;28;1733;-41
2021/07/16 09:47:06;;;;;;;;;;;;;;;22.31;64.46;100345.72;5019706;28;2061;-40
2021/07/16 09:49:32;;;;;;;;;;;;;;;22.31;64.18;100362.72;5026444;28;1732;-41
2021/07/16 09:52:06;;;;;;;;;;;;;;;22.28;64.19;100341.47;5021390;28;1775;-41
2021/07/16 09:54:33;;;;;;;;;;;;;;;22.32;63.94;100344.69;5022443;28;1529;-41
2021/07/16 09:57:00;;;;;;;;;;;;;;;22.25;63.59;100358.00;5020011;28;1902;-41
2021/07/16 09:59:28;;;;;;;;;;;;;;;22.24;63.46;100345.53;5029219;28;1732;-41
2021/07/16 10:01:55;;;;;;;;;;;;;;;22.22;63.43;100343.00;5021774;28;1544;-41
2021/07/16 10:04:23;;;;;;;;;;;;;;;22.47;63.37;100328.72;5026644;28;1755;-41
2021/07/16 10:06:50;;;;;;;;;;;;;;;22.86;62.61;100341.47;5022121;28;1700;-41
2021/07/16 10:09:17;;;;;;;;;;;;;;;23.18;61.71;100333.34;5022334;28;1445;-41
2021/07/16 10:11:46;;;;;;;;;;;;;;;23.47;61.06;100345.34;5025429;28;1767;-41
2021/07/16 10:14:14;;;;;;;;;;;;;;;23.77;61.17;100341.00;5033314;28;1804;-41
2021/07/16 10:16:43;;;;;;;;;;;;;;;23.92;61.08;100351.06;5026705;28;1910;-41
2021/07/16 10:19:10;;;;;;;;;;;;;;;23.99;60.83;100333.13;5029163;28;1743;-41
2021/07/16 10:21:37;;;;;;;;;;;;;;;24.10;60.33;100332.72;5031048;28;1425;-41
2021/07/16 10:24:04;;;;;;;;;;;;;;;24.12;60.27;100332.53;5033435;28;1539;-41
2021/07/16 10:26:31;;;;;;;;;;;;;;;24.16;60.03;100332.00;5024898;28;1915;-41
2021/07/16 10:28:58;;;;;;;;;;;;;;;24.21;60.71;100316.09;5031698;28;1254;-41
2021/07/16 10:31:39;;;;;;;;;;;;;;;24.27;60.59;100321.78;5022080;28;1587;-41
2021/07/16 10:34:06;;;;;;;;;;;;;;;24.32;59.87;100327.50;5020422;28;1615;-42
2021/07/16 10:36:39;;;;;;;;;;;;;;;24.35;60.02;100325.28;5025586;28;1902;-42
2021/07/16 10:39:08;;;;;;;;;;;;;;;24.36;60.21;100324.22;5017780;28;1378;-41
2021/07/16 10:41:35;;;;;;;;;;;;;;;24.35;60.84;100324.41;5019929;28;1752;-41
2021/07/16 10:44:02;;;;;;;;;;;;;;;24.38;60.15;100316.78;5024537;28;1716;-41
2021/07/16 10:46:30;;;;;;;;;;;;;;;24.40;60.38;100322.00;5020470;28;1402;-41
2021/07/16 10:48:58;;;;;;;;;;;;;;;24.42;60.86;100314.56;5021802;28;1383;-41
2021/07/16 10:51:26;;;;;;;;;;;;;;;24.44;60.98;100304.41;5014114;28;1477;-41
2021/07/16 10:53:52;;;;;;;;;;;;;;;24.47;60.28;100325.69;5030153;28;1886;-41
2021/07/16 10:56:20;;;;;;;;;;;;;;;24.47;60.50;100312.16;5028994;28;1902;-41
2021/07/16 10:58:49;;;;;;;;;;;;;;;24.49;60.83;100314.66;5025777;28;1803;-41
2021/07/16 11:01:28;;;;;;;;;;;;;;;24.52;60.75;100309.75;5025328;28;1667;-41
2021/07/16 11:03:54;;;;;;;;;;;;;;;24.54;60.67;100313.13;5031300;28;1811;-41
2021/07/16 11:06:22;;;;;;;;;;;;;;;24.55;60.94;100309.41;5016701;28;1740;-41
2021/07/16 11:08:53;;;;;;;;;;;;;;;24.55;61.36;100303.16;5026523;28;1417;-41
2021/07/16 11:11:20;;;;;;;;;;;;;;;24.57;61.51;100301.97;5021560;28;1721;-41
2021/07/16 11:13:47;;;;;;;;;;;;;;;24.56;60.87;100311.06;5021312;28;1429;-42
2021/07/16 11:16:34;;;;;;;;;;;;;;;24.56;61.55;100294.84;5021775;28;1906;-41
2021/07/16 11:19:02;;;;;;;;;;;;;;;24.60;61.38;100308.84;5013842;28;1728;-42
2021/07/16 11:21:48;;;;;;;;;;;;;;;24.60;61.65;100301.56;5024882;28;1393;-41
2021/07/16 11:24:24;;;;;;;;;;;;;;;24.63;61.67;100305.81;5031496;28;1424;-41
2021/07/16 11:26:54;;;;;;;;;;;;;;;24.63;60.97;100286.00;5022536;28;1736;-41
2021/07/16 11:29:21;;;;;;;;;;;;;;;24.64;60.96;100287.72;5018079;28;1701;-41
2021/07/16 11:31:48;;;;;;;;;;;;;;;24.71;61.29;100302.16;5031090;28;1577;-41
2021/07/16 11:34:18;;;;;;;;;;;;;;;24.66;61.09;100278.38;5025540;28;1763;-41
2021/07/16 11:36:48;;;;;;;;;;;;;;;24.72;61.99;100285.75;5019232;28;1910;-41
2021/07/16 11:39:27;;;;;;;;;;;;;;;24.71;63.18;100296.75;5024989;28;1755;-41
2021/07/16 11:41:54;;;;;;;;;;;;;;;24.25;62.84;100302.19;5030008;28;1477;-41
2021/07/16 11:44:25;;;;;;;;;;;;;;;23.41;61.65;100303.72;5015203;28;1740;-41
2021/07/16 11:46:52;;;;;;;;;;;;;;;22.89;61.24;100300.69;5027090;28;1799;-41
2021/07/16 11:49:26;;;;;;;;;;;;;;;22.52;60.96;100305.66;5019115;28;1681;-41
2021/07/16 11:52:00;;;;;;;;;;;;;;;22.23;60.84;100290.78;5023962;28;1398;-41
2021/07/16 11:54:28;;;;;;;;;;;;;;;22.17;61.40;100293.31;5023604;28;1772;-41
2021/07/16 11:56:56;;;;;;;;;;;;;;;22.20;60.92;100301.91;5025414;28;1977;-41
2021/07/16 11:59:23;;;;;;;;;;;;;;;22.31;61.32;100297.22;5025897;28;1937;-41
2021/07/16 12:02:03;;;;;;;;;;;;;;;22.52;61.46;100300.25;5019336;28;1560;-41
2021/07/16 12:04:30;;;;;;;;;;;;;;;22.77;61.22;100286.72;5019173;28;1422;-41
2021/07/16 12:06:56;;;;;;;;;;;;;;;22.92;61.37;100290.41;5029944;28;1719;-41
2021/07/16 12:09:30;;;;;;;;;;;;;;;23.02;61.40;100290.25;5027993;28;1671;-41
2021/07/16 12:12:00;;;;;;;;;;;;;;;23.13;61.25;100291.72;5035221;28;1382;-41
2021/07/16 12:14:27;;;;;;;;;;;;;;;23.20;61.28;100287.31;5028541;28;1625;-41
2021/07/16 12:16:53;;;;;;;;;;;;;;;23.20;61.27;100295.41;5020285;28;1910;-41
2021/07/16 12:19:20;;;;;;;;;;;;;;;23.25;61.55;100274.13;5036221;28;1685;-41
2021/07/16 12:21:47;;;;;;;;;;;;;;;23.25;61.76;100278.69;5024947;28;1462;-42
2021/07/16 12:24:15;;;;;;;;;;;;;;;23.23;61.66;100287.78;5026555;28;1558;-41
2021/07/16 12:26:42;;;;;;;;;;;;;;;23.26;61.68;100286.59;5020956;28;1362;-41
2021/07/16 12:29:09;;;;;;;;;;;;;;;23.25;61.79;100262.50;5025330;28;1612;-41
2021/07/16 12:31:36;;;;;;;;;;;;;;;23.30;61.79;100287.06;5020978;28;1753;-41
2021/07/16 12:34:03;;;;;;;;;;;;;;;23.23;61.99;100276.16;5020242;28;1791;-41
2021/07/16 12:36:32;;;;;;;;;;;;;;;23.29;62.00;100258.44;5031653;28;1975;-41
2021/07/16 12:38:59;;;;;;;;;;;;;;;23.36;61.67;100271.03;5026395;28;1768;-41
2021/07/16 12:41:26;;;;;;;;;;;;;;;23.28;61.90;100256.72;5020812;28;1568;-41
2021/07/16 12:43:53;;;;;;;;;;;;;;;23.29;61.92;100267.34;5034012;28;1791;-41
2021/07/16 12:46:24;;;;;;;;;;;;;;;23.25;62.16;100262.50;5022712;28;2001;-41
2021/07/16 12:48:50;;;;;;;;;;;;;;;23.30;62.20;100260.94;5021233;28;1509;-42
2021/07/16 12:51:17;;;;;;;;;;;;;;;23.24;62.39;100258.97;5033580;28;1546;-41